createdAt,value
2023-02-14T00:00:48.381Z,97965.47
2023-02-14T00:03:15.379Z,97959.09
2023-02-14T00:05:41.685Z,97952.19
2023-02-14T00:08:08.069Z,97948.84
2023-02-14T00:10:36.348Z,97935.97
2023-02-14T00:13:02.826Z,97946.34
2023-02-14T00:15:29.209Z,97950.53
2023-02-14T00:18:00.022Z,97956.03
2023-02-14T00:20:28.053Z,97945.94
2023-02-14T00:22:54.453Z,97947.16
2023-02-14T00:25:22.530Z,97939.56
2023-02-14T00:27:48.952Z,97947.91
2023-02-14T00:30:15.530Z,97946.03
2023-02-14T00:32:42.923Z,97943.19
2023-02-14T00:35:10.421Z,97943.84
2023-02-14T00:37:37.012Z,97947.16
2023-02-14T00:40:04.534Z,97941.53
2023-02-14T00:42:30.878Z,97945.28
2023-02-14T00:44:57.673Z,97946.97
2023-02-14T00:47:24.014Z,97940.28
2023-02-14T00:49:50.357Z,97940.78
2023-02-14T00:52:17.100Z,97943.22
2023-02-14T00:54:43.657Z,97942.28
2023-02-14T00:57:10.381Z,97935.47
2023-02-14T00:59:36.732Z,97940.72
2023-02-14T01:02:03.099Z,97941.22
2023-02-14T01:04:29.819Z,97944.66
2023-02-14T01:06:56.156Z,97953.03
2023-02-14T01:09:22.510Z,97946.75
2023-02-14T01:11:49.240Z,97947.38
2023-02-14T01:14:15.608Z,97947.16
2023-02-14T01:16:42.028Z,97944.09
2023-02-14T01:19:09.665Z,97950.28
2023-02-14T01:21:36.613Z,97948.84
2023-02-14T01:24:06.736Z,97947.97
2023-02-14T01:26:34.273Z,97945.78
2023-02-14T01:29:00.718Z,97946.28
2023-02-14T01:31:31.002Z,97949.38
2023-02-14T01:33:58.861Z,97950.47
2023-02-14T01:36:43.438Z,97954.84
2023-02-14T01:39:17.599Z,97961.28
2023-02-14T01:41:48.901Z,97958.41
2023-02-14T01:44:15.196Z,97957.34
2023-02-14T01:46:43.793Z,97957.56
2023-02-14T01:49:36.085Z,97950.13
2023-02-14T01:52:05.662Z,97949.44
2023-02-14T01:54:35.924Z,97946.66
2023-02-14T01:57:07.032Z,97949.13
2023-02-14T01:59:40.705Z,97947.25
2023-02-14T02:02:07.821Z,97954.28
2023-02-14T02:04:40.990Z,97955.97
2023-02-14T02:07:12.353Z,97946.66
2023-02-14T02:09:51.874Z,97958.00
2023-02-14T02:12:18.378Z,97963.03
2023-02-14T02:14:45.113Z,97962.88
2023-02-14T02:17:30.322Z,97955.75
2023-02-14T02:20:09.066Z,97953.91
2023-02-14T02:22:52.971Z,97959.13
2023-02-14T02:25:58.661Z,97955.44
2023-02-14T02:28:52.654Z,97949.06
2023-02-14T02:31:47.131Z,97938.75
2023-02-14T02:34:13.625Z,97944.16
2023-02-14T02:36:45.844Z,97946.22
2023-02-14T02:39:31.357Z,97944.81
2023-02-14T02:42:06.852Z,97939.84
2023-02-14T02:44:58.540Z,97945.31
2023-02-14T02:47:27.898Z,97941.84
2023-02-14T02:50:16.767Z,97943.91
2023-02-14T02:53:03.384Z,97936.81
2023-02-14T02:56:11.393Z,97929.41
2023-02-14T02:58:40.872Z,97921.41
2023-02-14T03:01:12.327Z,97923.34
2023-02-14T03:04:00.196Z,97928.25
2023-02-14T03:06:27.000Z,97925.50
2023-02-14T03:08:53.334Z,97938.63
2023-02-14T03:11:19.921Z,97941.06
2023-02-14T03:14:03.044Z,97931.28
2023-02-14T03:16:50.284Z,97932.72
2023-02-14T03:19:36.546Z,97937.28
2023-02-14T03:22:29.653Z,97938.69
2023-02-14T03:25:11.655Z,97948.09
2023-02-14T03:27:45.204Z,97948.94
2023-02-14T03:30:20.623Z,97952.19
2023-02-14T03:32:53.415Z,97951.44
2023-02-14T03:35:25.540Z,97947.34
2023-02-14T03:38:01.562Z,97951.38
2023-02-14T03:40:38.998Z,97944.16
2023-02-14T03:43:22.086Z,97949.44
2023-02-14T03:45:58.787Z,97953.19
2023-02-14T03:48:27.908Z,97954.59
2023-02-14T03:50:55.510Z,97954.66
2023-02-14T03:53:25.930Z,97952.84
2023-02-14T03:56:15.149Z,97949.28
2023-02-14T03:58:47.113Z,97950.56
2023-02-14T04:01:16.484Z,97948.03
2023-02-14T04:03:44.294Z,97939.56
2023-02-14T04:06:11.282Z,97935.13
2023-02-14T04:08:37.653Z,97939.97
2023-02-14T04:11:05.670Z,97940.34
2023-02-14T04:13:32.826Z,97934.19
2023-02-14T04:15:59.234Z,97945.44
2023-02-14T04:18:44.584Z,97940.81
2023-02-14T04:21:10.833Z,97942.91
2023-02-14T04:23:37.204Z,97939.34
2023-02-14T04:26:05.222Z,97937.13
2023-02-14T04:28:32.325Z,97942.94
2023-02-14T04:31:06.963Z,97941.63
2023-02-14T04:33:34.474Z,97943.25
2023-02-14T04:36:01.008Z,97940.09
2023-02-14T04:38:27.547Z,97948.72
2023-02-14T04:40:54.252Z,97946.47
2023-02-14T04:43:20.595Z,97936.44
2023-02-14T04:45:47.555Z,97938.31
2023-02-14T04:48:14.198Z,97940.81
2023-02-14T04:50:40.598Z,97945.72
2023-02-14T04:53:07.472Z,97937.91
2023-02-14T04:55:33.861Z,97930.28
2023-02-14T04:58:00.366Z,97931.50
2023-02-14T05:00:27.178Z,97925.44
2023-02-14T05:02:53.558Z,97928.41
2023-02-14T05:05:19.960Z,97922.19
2023-02-14T05:07:48.088Z,97921.16
2023-02-14T05:10:14.788Z,97925.09
2023-02-14T05:12:41.716Z,97915.69
2023-02-14T05:15:09.090Z,97919.75
2023-02-14T05:17:36.085Z,97916.59
2023-02-14T05:20:04.721Z,97922.41
2023-02-14T05:22:31.224Z,97914.94
2023-02-14T05:24:57.930Z,97922.34
2023-02-14T05:27:24.507Z,97918.56
2023-02-14T05:29:50.860Z,97915.84
2023-02-14T05:32:17.263Z,97923.34
2023-02-14T05:34:43.998Z,97920.63
2023-02-14T05:37:10.325Z,97918.44
2023-02-14T05:39:36.688Z,97922.63
2023-02-14T05:42:03.735Z,97922.31
2023-02-14T05:44:30.112Z,97915.84
2023-02-14T05:46:56.832Z,97916.81
2023-02-14T05:49:23.227Z,97917.97
2023-02-14T05:51:49.874Z,97912.53
2023-02-14T05:54:16.687Z,97920.75
2023-02-14T05:56:43.011Z,97925.56
2023-02-14T05:59:09.330Z,97925.16
2023-02-14T06:01:36.173Z,97921.13
2023-02-14T06:04:02.559Z,97923.84
2023-02-14T06:06:28.904Z,97923.22
2023-02-14T06:08:55.402Z,97925.28
2023-02-14T06:11:21.737Z,97926.78
2023-02-14T06:13:48.490Z,97919.84
2023-02-14T06:16:15.204Z,97928.22
2023-02-14T06:18:41.927Z,97927.22
2023-02-14T06:21:08.284Z,97933.53
2023-02-14T06:23:35.021Z,97933.44
2023-02-14T06:26:01.459Z,97938.19
2023-02-14T06:28:27.798Z,97934.84
2023-02-14T06:30:54.494Z,97940.25
2023-02-14T06:33:20.909Z,97942.84
2023-02-14T06:35:47.267Z,97928.31
2023-02-14T06:38:14.023Z,97941.59
2023-02-14T06:40:40.414Z,97943.19
2023-02-14T06:43:06.758Z,97931.19
2023-02-14T06:45:33.630Z,97928.91
2023-02-14T06:48:00.197Z,97947.13
2023-02-14T06:50:26.683Z,97943.53
2023-02-14T06:52:53.748Z,97939.78
2023-02-14T06:55:20.145Z,97938.69
2023-02-14T06:57:46.586Z,97935.09
2023-02-14T07:00:15.079Z,97941.97
2023-02-14T07:02:41.860Z,97936.06
2023-02-14T07:05:08.723Z,97938.41
2023-02-14T07:07:35.497Z,97943.72
2023-02-14T07:10:01.928Z,97933.56
2023-02-14T07:12:28.258Z,97931.78
2023-02-14T07:14:54.954Z,97939.22
2023-02-14T07:17:21.275Z,97934.41
2023-02-14T07:19:47.624Z,97937.94
2023-02-14T07:22:14.325Z,97931.41
2023-02-14T07:24:40.734Z,97939.78
2023-02-14T07:27:07.050Z,97928.22
2023-02-14T07:29:33.960Z,97936.31
2023-02-14T07:32:00.409Z,97929.31
2023-02-14T07:34:27.284Z,97923.38
2023-02-14T07:36:53.985Z,97922.28
2023-02-14T07:39:20.420Z,97927.31
2023-02-14T07:41:46.749Z,97928.56
2023-02-14T07:44:13.482Z,97931.91
2023-02-14T07:46:39.964Z,97931.47
2023-02-14T07:49:06.352Z,97928.03
2023-02-14T07:51:32.685Z,97933.78
2023-02-14T07:53:59.028Z,97942.13
2023-02-14T07:56:25.382Z,97931.25
2023-02-14T07:58:52.290Z,97926.16
2023-02-14T08:01:19.064Z,97926.16
2023-02-14T08:03:49.213Z,97935.19
2023-02-14T08:06:17.910Z,97931.22
2023-02-14T08:08:44.530Z,97930.56
2023-02-14T08:11:10.956Z,97924.56
2023-02-14T08:13:37.402Z,97926.28
2023-02-14T08:16:11.707Z,97924.59
2023-02-14T08:18:42.200Z,97918.31
2023-02-14T08:21:11.108Z,97918.88
2023-02-14T08:23:37.787Z,97921.63
2023-02-14T08:26:05.212Z,97930.88
2023-02-14T08:28:32.989Z,97926.47
2023-02-14T08:30:59.740Z,97925.44
2023-02-14T08:33:26.782Z,97923.53
2023-02-14T08:35:53.541Z,97919.78
2023-02-14T08:38:20.089Z,97923.19
2023-02-14T08:40:46.657Z,97926.28
2023-02-14T08:43:14.085Z,97923.34
2023-02-14T08:45:41.069Z,97914.84
2023-02-14T08:48:10.122Z,97903.16
2023-02-14T08:50:37.880Z,97903.34
2023-02-14T08:53:12.157Z,97904.31
2023-02-14T08:55:39.872Z,97903.69
2023-02-14T08:58:07.335Z,97904.31
2023-02-14T09:00:34.199Z,97913.47
2023-02-14T09:03:01.320Z,97903.81
2023-02-14T09:05:27.888Z,97901.97
2023-02-14T09:07:56.240Z,97903.03
2023-02-14T09:10:23.781Z,97898.63
2023-02-14T09:12:50.159Z,97906.84
2023-02-14T09:15:16.542Z,97898.28
2023-02-14T09:17:43.433Z,97898.84
2023-02-14T09:20:12.833Z,97907.56
2023-02-14T09:22:39.334Z,97908.63
2023-02-14T09:25:06.432Z,97905.28
2023-02-14T09:27:32.867Z,97904.81
2023-02-14T09:29:59.325Z,97894.72
2023-02-14T09:32:27.744Z,97908.25
2023-02-14T09:34:54.188Z,97897.19
2023-02-14T09:37:20.628Z,97896.78
2023-02-14T09:39:47.319Z,97896.31
2023-02-14T09:42:19.510Z,97901.38
2023-02-14T09:45:04.715Z,97901.75
2023-02-14T09:47:46.383Z,97898.59
2023-02-14T09:50:20.789Z,97902.88
2023-02-14T09:52:51.269Z,97900.78
2023-02-14T09:55:18.125Z,97900.16
2023-02-14T09:58:13.297Z,97899.69
2023-02-14T10:00:49.450Z,97895.97
2023-02-14T10:03:27.885Z,97897.78
2023-02-14T10:06:13.308Z,97900.47
2023-02-14T10:08:52.319Z,97897.25
2023-02-14T10:11:22.710Z,97895.16
2023-02-14T10:13:59.926Z,97897.88
2023-02-14T10:16:32.487Z,97903.09
2023-02-14T10:19:07.367Z,97899.44
2023-02-14T10:21:42.614Z,97896.06
2023-02-14T10:24:42.237Z,97895.88
2023-02-14T10:27:14.846Z,97893.78
2023-02-14T10:29:41.760Z,97886.81
2023-02-14T10:32:15.044Z,97889.53
2023-02-14T10:34:50.322Z,97886.50
2023-02-14T10:37:41.034Z,97884.94
2023-02-14T10:40:23.287Z,97885.88
2023-02-14T10:43:05.419Z,97887.09
2023-02-14T10:45:41.800Z,97876.56
2023-02-14T10:48:18.165Z,97880.13
2023-02-14T10:51:04.122Z,97875.84
2023-02-14T10:53:47.534Z,97875.50
2023-02-14T10:56:29.500Z,97868.34
2023-02-14T10:58:57.665Z,97867.09
2023-02-14T11:01:25.043Z,97857.28
2023-02-14T11:04:06.219Z,97858.25
2023-02-14T11:06:36.206Z,97854.16
2023-02-14T11:09:03.428Z,97858.59
2023-02-14T11:11:43.619Z,97852.06
2023-02-14T11:14:29.957Z,97847.16
2023-02-14T11:16:58.829Z,97834.19
2023-02-14T11:19:36.105Z,97835.56
2023-02-14T11:22:04.778Z,97825.72
2023-02-14T11:24:33.914Z,97825.59
2023-02-14T11:27:13.091Z,97825.31
2023-02-14T11:29:39.342Z,97822.72
2023-02-14T11:32:23.108Z,97822.81
2023-02-14T11:34:59.602Z,97826.91
2023-02-14T11:37:31.923Z,97817.88
2023-02-14T11:40:01.318Z,97812.97
2023-02-14T11:42:37.174Z,97803.97
2023-02-14T11:45:05.176Z,97803.16
2023-02-14T11:47:34.348Z,97804.50
2023-02-14T11:50:06.276Z,97806.13
2023-02-14T11:52:33.862Z,97798.09
2023-02-14T11:55:00.845Z,97798.97
2023-02-14T11:57:33.498Z,97792.97
2023-02-14T12:00:04.364Z,97787.91
2023-02-14T12:02:41.101Z,97790.00
2023-02-14T12:05:49.059Z,97788.88
2023-02-14T12:08:23.790Z,97782.06
2023-02-14T12:11:05.503Z,97775.44
2023-02-14T12:13:33.407Z,97781.38
2023-02-14T12:16:00.756Z,97786.09
2023-02-14T12:18:45.617Z,97768.69
2023-02-14T12:21:31.084Z,97766.88
2023-02-14T12:24:06.508Z,97765.44
2023-02-14T12:26:43.531Z,97762.41
2023-02-14T12:29:21.255Z,97763.56
2023-02-14T12:31:49.688Z,97750.03
2023-02-14T12:34:18.441Z,97758.56
2023-02-14T12:36:57.559Z,97755.00
2023-02-14T12:39:49.022Z,97748.59
2023-02-14T12:42:46.857Z,97737.16
2023-02-14T12:45:43.334Z,97734.63
2023-02-14T12:48:16.677Z,97732.16
2023-02-14T12:51:06.767Z,97725.03
2023-02-14T12:54:06.898Z,97726.56
2023-02-14T12:56:59.377Z,97724.41
2023-02-14T12:59:38.514Z,97723.31
2023-02-14T13:02:33.335Z,97720.56
2023-02-14T13:05:19.999Z,97713.34
2023-02-14T13:08:14.041Z,97714.03
2023-02-14T13:11:12.879Z,97706.47
2023-02-14T13:13:55.810Z,97703.66
2023-02-14T13:16:37.685Z,97707.78
2023-02-14T13:19:46.968Z,97697.84
2023-02-14T13:22:20.592Z,97696.81
2023-02-14T13:24:50.997Z,97697.09
2023-02-14T13:27:24.771Z,97697.44
2023-02-14T13:29:58.010Z,97702.69
2023-02-14T13:32:27.438Z,97694.09
2023-02-14T13:34:54.736Z,97690.66
2023-02-14T13:37:24.004Z,97691.38
2023-02-14T13:40:01.459Z,97689.72
2023-02-14T13:42:46.668Z,97689.84
2023-02-14T13:45:40.525Z,97688.63
2023-02-14T13:48:12.974Z,97687.66
2023-02-14T13:50:50.518Z,97681.75
2023-02-14T13:53:29.359Z,97688.78
2023-02-14T13:55:56.231Z,97675.81
2023-02-14T13:58:24.208Z,97684.94
2023-02-14T14:00:52.394Z,97681.78
2023-02-14T14:03:28.095Z,97678.47
2023-02-14T14:06:08.419Z,97669.28
2023-02-14T14:08:38.840Z,97669.53
2023-02-14T14:11:12.343Z,97677.97
2023-02-14T14:13:41.484Z,97671.34
2023-02-14T14:16:23.063Z,97670.72
2023-02-14T14:18:56.165Z,97670.88
2023-02-14T14:21:27.055Z,97668.59
2023-02-14T14:24:06.087Z,97669.94
2023-02-14T14:26:37.150Z,97665.53
2023-02-14T14:29:11.702Z,97662.06
2023-02-14T14:31:40.529Z,97661.38
2023-02-14T14:34:06.906Z,97665.81
2023-02-14T14:36:33.234Z,97657.91
2023-02-14T14:39:00.001Z,97672.88
2023-02-14T14:41:28.987Z,97662.00
2023-02-14T14:43:55.799Z,97661.16
2023-02-14T14:46:22.789Z,97668.97
2023-02-14T14:48:51.891Z,97661.34
2023-02-14T14:51:26.399Z,97658.41
2023-02-14T14:54:13.392Z,97658.16
2023-02-14T14:57:07.878Z,97655.88
2023-02-14T14:59:35.923Z,97671.09
2023-02-14T15:02:05.391Z,97658.47
2023-02-14T15:04:34.182Z,97665.00
2023-02-14T15:07:20.856Z,97670.34
2023-02-14T15:09:47.663Z,97663.16
2023-02-14T15:12:38.415Z,97659.44
2023-02-14T15:15:08.646Z,97669.94
2023-02-14T15:17:36.443Z,97661.50
2023-02-14T15:20:16.956Z,97665.25
2023-02-14T15:22:46.592Z,97667.41
2023-02-14T15:25:21.331Z,97657.78
2023-02-14T15:27:48.940Z,97657.16
2023-02-14T15:30:31.012Z,97660.75
2023-02-14T15:32:58.101Z,97660.88
2023-02-14T15:35:28.708Z,97658.75
2023-02-14T15:38:00.815Z,97663.03
2023-02-14T15:40:31.223Z,97656.03
2023-02-14T15:43:13.051Z,97658.88
2023-02-14T15:45:39.798Z,97656.97
2023-02-14T15:48:16.033Z,97662.69
2023-02-14T15:50:47.741Z,97651.84
2023-02-14T15:53:27.962Z,97656.00
2023-02-14T15:56:02.041Z,97657.06
2023-02-14T15:58:35.731Z,97648.88
2023-02-14T16:01:03.182Z,97650.28
2023-02-14T16:03:35.738Z,97656.03
2023-02-14T16:06:04.264Z,97658.41
2023-02-14T16:08:39.347Z,97659.34
2023-02-14T16:11:16.097Z,97654.81
2023-02-14T16:13:44.954Z,97656.50
2023-02-14T16:16:13.762Z,97663.63
2023-02-14T16:18:43.126Z,97666.25
2023-02-14T16:21:21.436Z,97659.94
2023-02-14T16:24:08.204Z,97667.66
2023-02-14T16:26:39.102Z,97665.31
2023-02-14T16:29:08.834Z,97665.31
2023-02-14T16:31:38.175Z,97661.50
2023-02-14T16:34:04.611Z,97663.13
2023-02-14T16:36:34.012Z,97663.97
2023-02-14T16:39:04.915Z,97667.44
2023-02-14T16:41:34.206Z,97660.06
2023-02-14T16:44:00.743Z,97675.41
2023-02-14T16:46:32.161Z,97668.38
2023-02-14T16:48:59.286Z,97670.28
2023-02-14T16:51:28.053Z,97666.94
2023-02-14T16:53:57.872Z,97677.69
2023-02-14T16:56:30.291Z,97675.78
2023-02-14T16:58:58.233Z,97681.13
2023-02-14T17:01:25.254Z,97674.69
2023-02-14T17:03:52.110Z,97671.75
2023-02-14T17:06:22.870Z,97672.13
2023-02-14T17:08:52.822Z,97674.38
2023-02-14T17:11:20.038Z,97684.50
2023-02-14T17:13:47.691Z,97679.63
2023-02-14T17:16:15.909Z,97675.13
2023-02-14T17:18:47.448Z,97672.50
2023-02-14T17:21:14.689Z,97673.44
2023-02-14T17:23:41.954Z,97674.22
2023-02-14T17:26:08.325Z,97678.75
2023-02-14T17:28:34.679Z,97675.81
2023-02-14T17:31:01.458Z,97679.84
2023-02-14T17:33:30.256Z,97676.41
2023-02-14T17:36:04.412Z,97679.25
2023-02-14T17:38:31.059Z,97683.25
2023-02-14T17:40:57.380Z,97687.94
2023-02-14T17:43:24.573Z,97689.25
2023-02-14T17:45:50.889Z,97695.53
2023-02-14T17:48:17.195Z,97686.13
2023-02-14T17:50:43.560Z,97691.09
2023-02-14T17:53:11.298Z,97687.31
2023-02-14T17:55:37.697Z,97690.25
2023-02-14T17:58:04.404Z,97686.66
2023-02-14T18:00:30.730Z,97691.88
2023-02-14T18:02:57.160Z,97693.78
2023-02-14T18:05:23.887Z,97692.88
2023-02-14T18:07:51.249Z,97688.50
2023-02-14T18:10:17.680Z,97697.25
2023-02-14T18:12:44.544Z,97683.47
2023-02-14T18:15:10.966Z,97681.53
2023-02-14T18:17:37.309Z,97677.72
2023-02-14T18:20:05.877Z,97678.16
2023-02-14T18:22:32.260Z,97681.09
2023-02-14T18:24:59.022Z,97673.97
2023-02-14T18:27:26.367Z,97678.41
2023-02-14T18:29:52.867Z,97674.69
2023-02-14T18:32:19.214Z,97676.88
2023-02-14T18:34:46.232Z,97676.97
2023-02-14T18:37:13.777Z,97672.06
2023-02-14T18:39:40.173Z,97668.19
2023-02-14T18:42:07.139Z,97669.38
2023-02-14T18:44:33.517Z,97661.22
2023-02-14T18:47:01.328Z,97663.72
2023-02-14T18:49:27.718Z,97670.38
2023-02-14T18:51:54.747Z,97654.25
2023-02-14T18:54:21.091Z,97658.78
2023-02-14T18:56:48.201Z,97661.94
2023-02-14T18:59:14.509Z,97650.09
2023-02-14T19:01:45.065Z,97654.97
2023-02-14T19:04:13.902Z,97652.31
2023-02-14T19:06:41.849Z,97652.78
2023-02-14T19:09:10.769Z,97658.19
2023-02-14T19:11:38.016Z,97646.78
2023-02-14T19:14:09.795Z,97646.91
2023-02-14T19:16:42.328Z,97639.34
2023-02-14T19:19:09.062Z,97649.84
2023-02-14T19:21:35.548Z,97645.63
2023-02-14T19:24:04.280Z,97647.38
2023-02-14T19:26:34.617Z,97646.41
2023-02-14T19:29:03.386Z,97648.16
2023-02-14T19:31:31.218Z,97646.28
2023-02-14T19:33:57.765Z,97644.06
2023-02-14T19:36:24.259Z,97638.88
2023-02-14T19:38:53.706Z,97631.69
2023-02-14T19:41:27.869Z,97633.91
2023-02-14T19:43:59.656Z,97619.22
2023-02-14T19:46:27.622Z,97627.44
2023-02-14T19:48:55.567Z,97617.38
2023-02-14T19:51:28.377Z,97622.72
2023-02-14T19:53:56.052Z,97618.81
2023-02-14T19:56:28.754Z,97629.41
2023-02-14T19:58:58.461Z,97626.84
2023-02-14T20:01:40.190Z,97627.00
2023-02-14T20:04:09.961Z,97629.31
2023-02-14T20:06:37.637Z,97619.63
2023-02-14T20:09:05.570Z,97622.47
2023-02-14T20:11:46.159Z,97622.75
2023-02-14T20:14:14.488Z,97613.75
2023-02-14T20:16:41.076Z,97611.34
2023-02-14T20:19:13.775Z,97601.09
2023-02-14T20:21:42.234Z,97602.22
2023-02-14T20:24:09.649Z,97606.84
2023-02-14T20:26:37.902Z,97607.84
2023-02-14T20:29:06.612Z,97606.75
2023-02-14T20:31:34.592Z,97595.38
2023-02-14T20:34:01.512Z,97594.91
2023-02-14T20:36:28.180Z,97590.56
2023-02-14T20:38:58.735Z,97596.84
2023-02-14T20:41:26.244Z,97586.78
2023-02-14T20:43:53.256Z,97593.53
2023-02-14T20:46:20.065Z,97594.50
2023-02-14T20:48:46.406Z,97587.84
2023-02-14T20:51:18.377Z,97600.19
2023-02-14T20:53:45.675Z,97596.47
2023-02-14T20:56:12.679Z,97592.97
2023-02-14T20:58:41.875Z,97598.41
2023-02-14T21:01:14.265Z,97595.75
2023-02-14T21:03:42.837Z,97594.19
2023-02-14T21:06:11.631Z,97592.97
2023-02-14T21:08:39.414Z,97601.06
2023-02-14T21:11:07.704Z,97595.81
2023-02-14T21:13:34.180Z,97588.41
2023-02-14T21:16:04.672Z,97585.22
2023-02-14T21:18:32.762Z,97587.97
2023-02-14T21:21:13.380Z,97577.59
2023-02-14T21:23:40.786Z,97577.75
2023-02-14T21:26:08.256Z,97579.94
2023-02-14T21:28:34.740Z,97578.06
2023-02-14T21:31:13.340Z,97575.00
2023-02-14T21:33:40.102Z,97581.91
2023-02-14T21:36:12.026Z,97571.69
2023-02-14T21:38:39.102Z,97575.84
2023-02-14T21:41:08.591Z,97578.81
2023-02-14T21:43:37.394Z,97581.41
2023-02-14T21:46:06.495Z,97576.34
2023-02-14T21:48:52.132Z,97576.44
2023-02-14T21:51:19.734Z,97569.06
2023-02-14T21:53:46.756Z,97562.09
2023-02-14T21:56:17.968Z,97557.38
2023-02-14T21:58:44.941Z,97561.16
2023-02-14T22:01:23.200Z,97562.56
2023-02-14T22:03:50.105Z,97561.34
2023-02-14T22:06:17.199Z,97554.06
2023-02-14T22:08:44.390Z,97551.50
2023-02-14T22:11:13.948Z,97554.38
2023-02-14T22:13:40.648Z,97552.84
2023-02-14T22:16:09.962Z,97549.53
2023-02-14T22:18:37.185Z,97552.84
2023-02-14T22:21:06.242Z,97543.03
2023-02-14T22:23:34.167Z,97563.41
2023-02-14T22:26:15.418Z,97553.84
2023-02-14T22:28:43.755Z,97549.91
2023-02-14T22:31:11.118Z,97551.50
2023-02-14T22:33:38.022Z,97544.78
2023-02-14T22:36:05.434Z,97546.16
2023-02-14T22:38:31.861Z,97543.19
2023-02-14T22:41:05.239Z,97549.47
2023-02-14T22:43:31.575Z,97544.47
2023-02-14T22:46:05.936Z,97547.19
2023-02-14T22:48:33.634Z,97541.34
2023-02-14T22:51:18.888Z,97536.22
2023-02-14T22:53:45.310Z,97542.03
2023-02-14T22:56:26.801Z,97531.09
2023-02-14T22:58:54.788Z,97532.28
2023-02-14T23:01:21.548Z,97532.75
2023-02-14T23:03:49.370Z,97535.63
2023-02-14T23:06:15.728Z,97536.34
2023-02-14T23:08:44.737Z,97529.97
2023-02-14T23:11:14.818Z,97539.66
2023-02-14T23:14:00.749Z,97526.38
2023-02-14T23:16:46.779Z,97534.69
2023-02-14T23:19:34.091Z,97524.75
2023-02-14T23:22:12.481Z,97524.97
2023-02-14T23:24:39.649Z,97520.94
2023-02-14T23:27:07.609Z,97520.38
2023-02-14T23:29:37.089Z,97523.56
2023-02-14T23:32:05.014Z,97520.78
2023-02-14T23:34:33.551Z,97522.59
2023-02-14T23:37:00.629Z,97514.34
2023-02-14T23:39:27.134Z,97512.19
2023-02-14T23:41:54.156Z,97509.59
2023-02-14T23:44:30.934Z,97508.16
2023-02-14T23:47:00.363Z,97512.88
2023-02-14T23:49:27.627Z,97505.59
2023-02-14T23:51:55.924Z,97506.09
2023-02-14T23:54:23.549Z,97506.81
2023-02-14T23:56:50.972Z,97501.34
2023-02-14T23:59:18.181Z,97493.75
